sensor_id;sensor_type;location;lat;lon;timestamp;pressure;altitude;pressure_sealevel;temperature;humidity
76260;BME280;65076;52.362;6.588;2023-05-25T00:02:21;102596.56;;;12.62;65.19
76260;BME280;65076;52.362;6.588;2023-05-25T00:04:50;102595.44;;;12.39;65.51
76260;BME280;65076;52.362;6.588;2023-05-25T00:07:21;102595.88;;;12.56;64.86
76260;BME280;65076;52.362;6.588;2023-05-25T00:09:49;102588.41;;;12.62;64.67
76260;BME280;65076;52.362;6.588;2023-05-25T00:12:17;102593.50;;;12.44;64.38
76260;BME280;65076;52.362;6.588;2023-05-25T00:14:45;102599.41;;;12.25;65.17
76260;BME280;65076;52.362;6.588;2023-05-25T00:17:13;102600.78;;;12.42;65.11
76260;BME280;65076;52.362;6.588;2023-05-25T00:19:45;102592.13;;;12.27;65.28
76260;BME280;65076;52.362;6.588;2023-05-25T00:22:13;102595.44;;;12.39;65.37
76260;BME280;65076;52.362;6.588;2023-05-25T00:24:41;102598.59;;;12.23;65.68
76260;BME280;65076;52.362;6.588;2023-05-25T00:27:09;102600.44;;;12.21;65.46
76260;BME280;65076;52.362;6.588;2023-05-25T00:29:37;102600.03;;;12.03;66.29
76260;BME280;65076;52.362;6.588;2023-05-25T00:32:06;102599.16;;;12.02;66.57
76260;BME280;65076;52.362;6.588;2023-05-25T00:34:34;102606.75;;;11.11;69.20
76260;BME280;65076;52.362;6.588;2023-05-25T00:37:04;102612.22;;;11.48;68.73
76260;BME280;65076;52.362;6.588;2023-05-25T00:39:32;102601.75;;;11.70;67.04
76260;BME280;65076;52.362;6.588;2023-05-25T00:42:01;102617.13;;;11.69;66.74
76260;BME280;65076;52.362;6.588;2023-05-25T00:44:33;102621.69;;;11.67;67.29
76260;BME280;65076;52.362;6.588;2023-05-25T00:47:01;102615.31;;;11.70;66.60
76260;BME280;65076;52.362;6.588;2023-05-25T00:49:30;102618.59;;;11.84;66.24
76260;BME280;65076;52.362;6.588;2023-05-25T00:52:04;102613.25;;;11.81;65.95
76260;BME280;65076;52.362;6.588;2023-05-25T00:54:32;102616.31;;;11.66;66.24
76260;BME280;65076;52.362;6.588;2023-05-25T00:57:06;102611.63;;;11.74;66.28
76260;BME280;65076;52.362;6.588;2023-05-25T00:59:39;102616.00;;;11.79;66.30
76260;BME280;65076;52.362;6.588;2023-05-25T01:02:15;102621.53;;;11.75;66.25
76260;BME280;65076;52.362;6.588;2023-05-25T01:04:51;102615.09;;;11.79;66.08
76260;BME280;65076;52.362;6.588;2023-05-25T01:07:23;102618.09;;;11.67;66.04
76260;BME280;65076;52.362;6.588;2023-05-25T01:09:56;102623.56;;;11.65;66.23
76260;BME280;65076;52.362;6.588;2023-05-25T01:12:28;102619.88;;;11.68;65.97
76260;BME280;65076;52.362;6.588;2023-05-25T01:14:56;102628.28;;;11.17;67.43
76260;BME280;65076;52.362;6.588;2023-05-25T01:17:28;102630.25;;;11.51;66.78
76260;BME280;65076;52.362;6.588;2023-05-25T01:19:57;102624.03;;;11.45;66.50
76260;BME280;65076;52.362;6.588;2023-05-25T01:22:44;102625.38;;;11.26;67.28
76260;BME280;65076;52.362;6.588;2023-05-25T01:25:20;102633.25;;;11.37;66.98
76260;BME280;65076;52.362;6.588;2023-05-25T01:27:53;102627.72;;;11.41;67.18
76260;BME280;65076;52.362;6.588;2023-05-25T01:30:25;102628.63;;;11.42;67.12
76260;BME280;65076;52.362;6.588;2023-05-25T01:32:56;102628.47;;;11.48;66.54
76260;BME280;65076;52.362;6.588;2023-05-25T01:35:26;102629.28;;;11.52;67.05
76260;BME280;65076;52.362;6.588;2023-05-25T01:37:57;102624.78;;;11.12;67.66
76260;BME280;65076;52.362;6.588;2023-05-25T01:40:27;102627.25;;;11.24;68.19
76260;BME280;65076;52.362;6.588;2023-05-25T01:42:55;102627.88;;;11.35;67.78
76260;BME280;65076;52.362;6.588;2023-05-25T01:45:23;102629.09;;;11.21;67.57
76260;BME280;65076;52.362;6.588;2023-05-25T01:47:56;102621.06;;;11.16;67.54
76260;BME280;65076;52.362;6.588;2023-05-25T01:50:35;102618.78;;;10.98;68.77
76260;BME280;65076;52.362;6.588;2023-05-25T01:53:13;102626.38;;;11.21;68.17
76260;BME280;65076;52.362;6.588;2023-05-25T01:55:50;102626.38;;;11.22;67.75
76260;BME280;65076;52.362;6.588;2023-05-25T01:58:23;102625.44;;;11.25;67.50
76260;BME280;65076;52.362;6.588;2023-05-25T02:00:52;102629.19;;;11.18;67.48
76260;BME280;65076;52.362;6.588;2023-05-25T02:03:22;102630.06;;;11.18;67.48
76260;BME280;65076;52.362;6.588;2023-05-25T02:05:50;102638.34;;;11.12;67.92
76260;BME280;65076;52.362;6.588;2023-05-25T02:08:20;102628.19;;;11.22;67.58
76260;BME280;65076;52.362;6.588;2023-05-25T02:10:48;102635.53;;;11.15;67.67
76260;BME280;65076;52.362;6.588;2023-05-25T02:13:16;102636.75;;;11.02;67.82
76260;BME280;65076;52.362;6.588;2023-05-25T02:15:44;102625.59;;;10.74;68.96
76260;BME280;65076;52.362;6.588;2023-05-25T02:18:13;102637.13;;;10.84;68.41
76260;BME280;65076;52.362;6.588;2023-05-25T02:20:43;102634.03;;;11.02;68.33
76260;BME280;65076;52.362;6.588;2023-05-25T02:23:11;102635.09;;;10.95;68.07
76260;BME280;65076;52.362;6.588;2023-05-25T02:25:40;102635.97;;;10.95;67.70
76260;BME280;65076;52.362;6.588;2023-05-25T02:28:09;102634.97;;;11.01;67.75
76260;BME280;65076;52.362;6.588;2023-05-25T02:30:37;102635.06;;;10.96;67.83
76260;BME280;65076;52.362;6.588;2023-05-25T02:33:05;102643.03;;;11.04;68.02
76260;BME280;65076;52.362;6.588;2023-05-25T02:35:34;102642.19;;;11.00;68.00
76260;BME280;65076;52.362;6.588;2023-05-25T02:38:02;102648.69;;;10.93;68.33
76260;BME280;65076;52.362;6.588;2023-05-25T02:40:30;102646.91;;;10.91;68.01
76260;BME280;65076;52.362;6.588;2023-05-25T02:42:59;102652.19;;;10.98;67.90
76260;BME280;65076;52.362;6.588;2023-05-25T02:45:27;102652.03;;;10.61;69.43
76260;BME280;65076;52.362;6.588;2023-05-25T02:47:55;102643.72;;;10.71;69.40
76260;BME280;65076;52.362;6.588;2023-05-25T02:50:23;102645.22;;;10.85;69.05
76260;BME280;65076;52.362;6.588;2023-05-25T02:52:51;102663.66;;;10.67;69.47
76260;BME280;65076;52.362;6.588;2023-05-25T02:55:20;102653.84;;;10.61;68.85
76260;BME280;65076;52.362;6.588;2023-05-25T02:57:48;102657.88;;;10.85;68.51
76260;BME280;65076;52.362;6.588;2023-05-25T03:00:20;102655.16;;;10.85;67.65
76260;BME280;65076;52.362;6.588;2023-05-25T03:02:48;102664.50;;;10.69;68.24
76260;BME280;65076;52.362;6.588;2023-05-25T03:05:17;102664.41;;;10.73;67.74
76260;BME280;65076;52.362;6.588;2023-05-25T03:07:46;102666.19;;;10.76;67.69
76260;BME280;65076;52.362;6.588;2023-05-25T03:10:14;102666.38;;;10.65;68.10
76260;BME280;65076;52.362;6.588;2023-05-25T03:12:42;102666.59;;;10.02;69.82
76260;BME280;65076;52.362;6.588;2023-05-25T03:15:12;102661.09;;;9.50;72.05
76260;BME280;65076;52.362;6.588;2023-05-25T03:17:41;102657.53;;;10.05;70.89
76260;BME280;65076;52.362;6.588;2023-05-25T03:20:10;102666.69;;;9.98;71.33
76260;BME280;65076;52.362;6.588;2023-05-25T03:22:41;102663.44;;;10.30;70.34
76260;BME280;65076;52.362;6.588;2023-05-25T03:25:09;102663.56;;;10.24;70.34
76260;BME280;65076;52.362;6.588;2023-05-25T03:27:38;102655.94;;;10.45;69.31
76260;BME280;65076;52.362;6.588;2023-05-25T03:30:07;102655.69;;;10.57;68.98
76260;BME280;65076;52.362;6.588;2023-05-25T03:32:35;102655.63;;;10.62;69.05
76260;BME280;65076;52.362;6.588;2023-05-25T03:35:05;102662.56;;;10.75;68.83
76260;BME280;65076;52.362;6.588;2023-05-25T03:37:33;102664.59;;;10.64;68.50
76260;BME280;65076;52.362;6.588;2023-05-25T03:40:02;102661.09;;;10.59;68.37
76260;BME280;65076;52.362;6.588;2023-05-25T03:42:31;102666.47;;;10.62;68.46
76260;BME280;65076;52.362;6.588;2023-05-25T03:44:58;102668.06;;;10.72;67.54
76260;BME280;65076;52.362;6.588;2023-05-25T03:47:26;102663.69;;;10.63;67.88
76260;BME280;65076;52.362;6.588;2023-05-25T03:49:55;102675.25;;;10.73;66.96
76260;BME280;65076;52.362;6.588;2023-05-25T03:52:24;102675.19;;;10.76;67.09
76260;BME280;65076;52.362;6.588;2023-05-25T03:54:52;102675.31;;;10.70;67.08
76260;BME280;65076;52.362;6.588;2023-05-25T03:57:20;102677.94;;;10.75;67.45
76260;BME280;65076;52.362;6.588;2023-05-25T03:59:48;102688.56;;;10.84;66.72
76260;BME280;65076;52.362;6.588;2023-05-25T04:02:15;102684.84;;;10.89;66.71
76260;BME280;65076;52.362;6.588;2023-05-25T04:04:45;102690.63;;;10.73;67.09
76260;BME280;65076;52.362;6.588;2023-05-25T04:07:17;102691.97;;;10.95;66.98
76260;BME280;65076;52.362;6.588;2023-05-25T04:09:46;102683.69;;;11.02;66.36
76260;BME280;65076;52.362;6.588;2023-05-25T04:12:14;102689.00;;;11.07;66.05
76260;BME280;65076;52.362;6.588;2023-05-25T04:14:42;102688.78;;;11.18;66.53
76260;BME280;65076;52.362;6.588;2023-05-25T04:17:11;102687.81;;;11.20;66.99
76260;BME280;65076;52.362;6.588;2023-05-25T04:19:39;102693.06;;;11.29;66.73
76260;BME280;65076;52.362;6.588;2023-05-25T04:22:07;102698.56;;;10.82;69.03
76260;BME280;65076;52.362;6.588;2023-05-25T04:24:35;102688.72;;;11.21;69.26
76260;BME280;65076;52.362;6.588;2023-05-25T04:27:04;102681.78;;;11.49;67.87
76260;BME280;65076;52.362;6.588;2023-05-25T04:29:32;102682.84;;;11.82;67.25
76260;BME280;65076;52.362;6.588;2023-05-25T04:32:00;102683.66;;;12.22;66.22
76260;BME280;65076;52.362;6.588;2023-05-25T04:34:29;102684.94;;;12.76;64.86
76260;BME280;65076;52.362;6.588;2023-05-25T04:36:59;102683.31;;;13.32;63.55
76260;BME280;65076;52.362;6.588;2023-05-25T04:39:31;102678.81;;;13.60;61.65
76260;BME280;65076;52.362;6.588;2023-05-25T04:41:58;102682.06;;;13.99;59.42
76260;BME280;65076;52.362;6.588;2023-05-25T04:44:32;102684.81;;;14.53;58.84
76260;BME280;65076;52.362;6.588;2023-05-25T04:46:59;102681.91;;;14.82;57.50
76260;BME280;65076;52.362;6.588;2023-05-25T04:49:28;102687.00;;;15.16;57.71
76260;BME280;65076;52.362;6.588;2023-05-25T04:51:57;102690.97;;;14.58;58.00
76260;BME280;65076;52.362;6.588;2023-05-25T04:54:25;102686.44;;;15.55;56.98
76260;BME280;65076;52.362;6.588;2023-05-25T04:56:53;102692.38;;;15.18;58.09
76260;BME280;65076;52.362;6.588;2023-05-25T04:59:22;102702.66;;;14.87;59.12
76260;BME280;65076;52.362;6.588;2023-05-25T05:01:51;102700.97;;;15.07;58.97
76260;BME280;65076;52.362;6.588;2023-05-25T05:04:20;102706.38;;;14.59;60.48
76260;BME280;65076;52.362;6.588;2023-05-25T05:06:48;102705.28;;;14.90;60.79
76260;BME280;65076;52.362;6.588;2023-05-25T05:09:16;102713.34;;;14.93;60.34
76260;BME280;65076;52.362;6.588;2023-05-25T05:11:47;102709.28;;;14.27;61.79
76260;BME280;65076;52.362;6.588;2023-05-25T05:14:15;102721.00;;;14.03;64.36
76260;BME280;65076;52.362;6.588;2023-05-25T05:16:43;102714.84;;;13.39;65.97
76260;BME280;65076;52.362;6.588;2023-05-25T05:19:12;102714.66;;;14.02;64.38
76260;BME280;65076;52.362;6.588;2023-05-25T05:21:40;102716.75;;;13.92;64.73
76260;BME280;65076;52.362;6.588;2023-05-25T05:24:08;102711.00;;;14.29;64.01
76260;BME280;65076;52.362;6.588;2023-05-25T05:26:38;102703.09;;;14.99;61.16
76260;BME280;65076;52.362;6.588;2023-05-25T05:29:22;102715.56;;;15.06;61.47
76260;BME280;65076;52.362;6.588;2023-05-25T05:31:50;102722.59;;;14.62;61.04
76260;BME280;65076;52.362;6.588;2023-05-25T05:34:19;102731.19;;;13.96;65.33
76260;BME280;65076;52.362;6.588;2023-05-25T05:36:47;102729.84;;;14.37;65.48
76260;BME280;65076;52.362;6.588;2023-05-25T05:39:24;102735.84;;;14.19;64.78
76260;BME280;65076;52.362;6.588;2023-05-25T05:41:52;102747.59;;;14.21;65.60
76260;BME280;65076;52.362;6.588;2023-05-25T05:44:21;102756.47;;;13.99;65.07
76260;BME280;65076;52.362;6.588;2023-05-25T05:46:53;102761.06;;;14.53;65.05
76260;BME280;65076;52.362;6.588;2023-05-25T05:49:27;102760.97;;;14.00;66.94
76260;BME280;65076;52.362;6.588;2023-05-25T05:51:56;102752.50;;;14.39;66.16
76260;BME280;65076;52.362;6.588;2023-05-25T05:54:24;102752.41;;;14.40;65.63
76260;BME280;65076;52.362;6.588;2023-05-25T05:56:53;102754.72;;;14.25;66.29
76260;BME280;65076;52.362;6.588;2023-05-25T05:59:21;102747.72;;;14.18;66.04
76260;BME280;65076;52.362;6.588;2023-05-25T06:01:49;102751.34;;;14.18;66.64
76260;BME280;65076;52.362;6.588;2023-05-25T06:04:18;102753.31;;;14.41;66.00
76260;BME280;65076;52.362;6.588;2023-05-25T06:06:47;102765.41;;;14.31;67.29
76260;BME280;65076;52.362;6.588;2023-05-25T06:09:16;102773.22;;;14.14;67.56
76260;BME280;65076;52.362;6.588;2023-05-25T06:11:44;102769.31;;;15.03;65.21
76260;BME280;65076;52.362;6.588;2023-05-25T06:14:13;102782.59;;;14.61;66.50
76260;BME280;65076;52.362;6.588;2023-05-25T06:16:41;102780.84;;;14.60;67.67
76260;BME280;65076;52.362;6.588;2023-05-25T06:19:10;102774.53;;;15.09;65.34
76260;BME280;65076;52.362;6.588;2023-05-25T06:21:40;102774.28;;;15.88;63.13
76260;BME280;65076;52.362;6.588;2023-05-25T06:24:09;102776.09;;;15.89;63.38
76260;BME280;65076;52.362;6.588;2023-05-25T06:26:37;102776.47;;;16.68;59.91
76260;BME280;65076;52.362;6.588;2023-05-25T06:29:05;102775.47;;;17.11;58.90
76260;BME280;65076;52.362;6.588;2023-05-25T06:31:33;102768.22;;;18.63;55.37
76260;BME280;65076;52.362;6.588;2023-05-25T06:34:01;102768.38;;;18.23;55.29
76260;BME280;65076;52.362;6.588;2023-05-25T06:36:30;102757.28;;;19.48;52.24
76260;BME280;65076;52.362;6.588;2023-05-25T06:38:58;102771.19;;;18.76;53.24
76260;BME280;65076;52.362;6.588;2023-05-25T06:41:27;102770.16;;;18.95;53.44
76260;BME280;65076;52.362;6.588;2023-05-25T06:43:56;102764.78;;;19.44;52.15
76260;BME280;65076;52.362;6.588;2023-05-25T06:46:24;102773.53;;;19.00;51.97
76260;BME280;65076;52.362;6.588;2023-05-25T06:48:52;102772.47;;;18.69;52.97
76260;BME280;65076;52.362;6.588;2023-05-25T06:51:21;102777.41;;;18.79;53.11
76260;BME280;65076;52.362;6.588;2023-05-25T06:53:53;102767.34;;;20.44;49.50
76260;BME280;65076;52.362;6.588;2023-05-25T06:56:22;102775.56;;;19.14;52.18
76260;BME280;65076;52.362;6.588;2023-05-25T06:58:51;102775.06;;;19.73;50.27
76260;BME280;65076;52.362;6.588;2023-05-25T07:01:19;102776.28;;;19.18;51.36
76260;BME280;65076;52.362;6.588;2023-05-25T07:03:48;102768.66;;;19.40;51.47
76260;BME280;65076;52.362;6.588;2023-05-25T07:06:16;102786.06;;;18.34;53.02
76260;BME280;65076;52.362;6.588;2023-05-25T07:08:43;102776.16;;;18.32;54.42
76260;BME280;65076;52.362;6.588;2023-05-25T07:11:11;102786.00;;;18.17;54.27
76260;BME280;65076;52.362;6.588;2023-05-25T07:13:39;102783.19;;;17.62;55.73
76260;BME280;65076;52.362;6.588;2023-05-25T07:16:09;102796.06;;;17.59;55.48
76260;BME280;65076;52.362;6.588;2023-05-25T07:18:37;102803.31;;;17.21;56.53
76260;BME280;65076;52.362;6.588;2023-05-25T07:21:06;102796.25;;;18.13;55.14
76260;BME280;65076;52.362;6.588;2023-05-25T07:23:35;102794.84;;;18.78;53.92
76260;BME280;65076;52.362;6.588;2023-05-25T07:26:03;102789.28;;;19.81;50.86
76260;BME280;65076;52.362;6.588;2023-05-25T07:28:31;102783.53;;;20.02;51.53
76260;BME280;65076;52.362;6.588;2023-05-25T07:30:59;102782.81;;;21.22;45.64
76260;BME280;65076;52.362;6.588;2023-05-25T07:33:29;102782.66;;;21.39;45.56
76260;BME280;65076;52.362;6.588;2023-05-25T07:35:57;102795.84;;;21.63;44.54
76260;BME280;65076;52.362;6.588;2023-05-25T07:38:25;102784.53;;;22.51;43.57
76260;BME280;65076;52.362;6.588;2023-05-25T07:40:52;102798.47;;;23.03;41.67
76260;BME280;65076;52.362;6.588;2023-05-25T07:43:22;102793.59;;;21.55;43.26
76260;BME280;65076;52.362;6.588;2023-05-25T07:45:50;102791.91;;;21.81;43.11
76260;BME280;65076;52.362;6.588;2023-05-25T07:48:18;102793.28;;;21.60;42.95
76260;BME280;65076;52.362;6.588;2023-05-25T07:50:47;102800.66;;;21.15;43.95
76260;BME280;65076;52.362;6.588;2023-05-25T07:53:15;102794.13;;;21.02;45.08
76260;BME280;65076;52.362;6.588;2023-05-25T07:55:43;102809.78;;;20.07;46.28
76260;BME280;65076;52.362;6.588;2023-05-25T07:58:11;102817.13;;;19.07;47.91
76260;BME280;65076;52.362;6.588;2023-05-25T08:00:39;102812.31;;;19.46;48.54
76260;BME280;65076;52.362;6.588;2023-05-25T08:03:08;102814.53;;;18.86;49.69
76260;BME280;65076;52.362;6.588;2023-05-25T08:05:36;102814.22;;;18.92;50.04
76260;BME280;65076;52.362;6.588;2023-05-25T08:08:06;102826.63;;;18.82;49.65
76260;BME280;65076;52.362;6.588;2023-05-25T08:10:36;102820.06;;;18.11;50.93
76260;BME280;65076;52.362;6.588;2023-05-25T08:13:03;102820.56;;;17.63;51.97
76260;BME280;65076;52.362;6.588;2023-05-25T08:15:32;102831.03;;;17.93;52.89
76260;BME280;65076;52.362;6.588;2023-05-25T08:17:59;102824.28;;;16.80;54.02
76260;BME280;65076;52.362;6.588;2023-05-25T08:20:29;102826.34;;;17.76;52.76
76260;BME280;65076;52.362;6.588;2023-05-25T08:22:57;102832.19;;;17.68;52.76
76260;BME280;65076;52.362;6.588;2023-05-25T08:25:28;102838.69;;;17.66;53.13
76260;BME280;65076;52.362;6.588;2023-05-25T08:27:56;102838.91;;;18.19;52.38
76260;BME280;65076;52.362;6.588;2023-05-25T08:30:24;102842.72;;;17.37;53.95
76260;BME280;65076;52.362;6.588;2023-05-25T08:32:52;102836.75;;;18.99;51.98
76260;BME280;65076;52.362;6.588;2023-05-25T08:35:20;102841.72;;;19.42;49.17
76260;BME280;65076;52.362;6.588;2023-05-25T08:37:48;102836.00;;;18.95;49.26
76260;BME280;65076;52.362;6.588;2023-05-25T08:40:17;102836.03;;;19.30;48.93
76260;BME280;65076;52.362;6.588;2023-05-25T08:42:50;102839.72;;;19.63;47.62
76260;BME280;65076;52.362;6.588;2023-05-25T08:45:18;102829.28;;;20.03;46.90
76260;BME280;65076;52.362;6.588;2023-05-25T08:48:02;102835.22;;;19.95;46.36
76260;BME280;65076;52.362;6.588;2023-05-25T08:50:34;102831.19;;;20.18;45.99
76260;BME280;65076;52.362;6.588;2023-05-25T08:53:07;102837.25;;;19.92;47.20
76260;BME280;65076;52.362;6.588;2023-05-25T08:55:40;102832.38;;;20.61;45.22
76260;BME280;65076;52.362;6.588;2023-05-25T08:58:16;102833.28;;;20.61;44.83
76260;BME280;65076;52.362;6.588;2023-05-25T09:00:52;102832.41;;;21.36;43.35
76260;BME280;65076;52.362;6.588;2023-05-25T09:03:25;102830.50;;;21.67;38.87
76260;BME280;65076;52.362;6.588;2023-05-25T09:05:56;102818.69;;;21.79;39.26
76260;BME280;65076;52.362;6.588;2023-05-25T09:08:24;102823.44;;;21.33;39.62
76260;BME280;65076;52.362;6.588;2023-05-25T09:10:54;102826.78;;;20.31;42.05
76260;BME280;65076;52.362;6.588;2023-05-25T09:13:25;102834.38;;;20.26;42.52
76260;BME280;65076;52.362;6.588;2023-05-25T09:15:53;102838.13;;;19.25;45.69
76260;BME280;65076;52.362;6.588;2023-05-25T09:18:21;102830.94;;;19.89;44.41
76260;BME280;65076;52.362;6.588;2023-05-25T09:20:50;102836.53;;;19.55;44.54
76260;BME280;65076;52.362;6.588;2023-05-25T09:23:18;102840.84;;;19.76;44.31
76260;BME280;65076;52.362;6.588;2023-05-25T09:25:47;102843.56;;;19.94;44.32
76260;BME280;65076;52.362;6.588;2023-05-25T09:28:17;102842.22;;;20.34;43.55
76260;BME280;65076;52.362;6.588;2023-05-25T09:30:51;102835.44;;;21.32;41.67
76260;BME280;65076;52.362;6.588;2023-05-25T09:33:19;102834.63;;;21.74;40.43
76260;BME280;65076;52.362;6.588;2023-05-25T09:35:47;102840.88;;;20.25;42.36
76260;BME280;65076;52.362;6.588;2023-05-25T09:38:15;102837.78;;;20.47;42.75
76260;BME280;65076;52.362;6.588;2023-05-25T09:40:46;102842.84;;;20.39;43.33
76260;BME280;65076;52.362;6.588;2023-05-25T09:43:15;102845.06;;;20.32;43.11
76260;BME280;65076;52.362;6.588;2023-05-25T09:45:59;102834.41;;;20.42;42.50
76260;BME280;65076;52.362;6.588;2023-05-25T09:48:27;102837.59;;;20.65;42.87
76260;BME280;65076;52.362;6.588;2023-05-25T09:50:55;102845.78;;;19.70;44.16
76260;BME280;65076;52.362;6.588;2023-05-25T09:53:25;102849.25;;;19.39;46.26
76260;BME280;65076;52.362;6.588;2023-05-25T09:55:53;102847.31;;;19.58;45.94
76260;BME280;65076;52.362;6.588;2023-05-25T09:58:21;102848.31;;;19.90;45.64
76260;BME280;65076;52.362;6.588;2023-05-25T10:00:52;102851.59;;;19.64;46.79
76260;BME280;65076;52.362;6.588;2023-05-25T10:03:22;102861.94;;;19.76;46.25
76260;BME280;65076;52.362;6.588;2023-05-25T10:05:51;102858.53;;;19.19;46.80
76260;BME280;65076;52.362;6.588;2023-05-25T10:08:21;102854.75;;;19.22;45.76
76260;BME280;65076;52.362;6.588;2023-05-25T10:10:54;102849.25;;;19.39;44.48
76260;BME280;65076;52.362;6.588;2023-05-25T10:13:24;102857.59;;;19.55;46.14
76260;BME280;65076;52.362;6.588;2023-05-25T10:15:56;102850.22;;;19.38;46.01
76260;BME280;65076;52.362;6.588;2023-05-25T10:18:27;102850.06;;;19.41;44.49
76260;BME280;65076;52.362;6.588;2023-05-25T10:21:01;102850.97;;;19.41;42.33
76260;BME280;65076;52.362;6.588;2023-05-25T10:23:35;102849.78;;;20.13;41.58
76260;BME280;65076;52.362;6.588;2023-05-25T10:26:08;102839.75;;;21.22;37.88
76260;BME280;65076;52.362;6.588;2023-05-25T10:28:43;102836.91;;;21.81;38.48
76260;BME280;65076;52.362;6.588;2023-05-25T10:31:15;102845.13;;;21.97;37.99
76260;BME280;65076;52.362;6.588;2023-05-25T10:33:47;102847.13;;;21.05;39.12
76260;BME280;65076;52.362;6.588;2023-05-25T10:36:19;102855.94;;;20.96;40.27
76260;BME280;65076;52.362;6.588;2023-05-25T10:38:50;102848.00;;;21.22;39.91
76260;BME280;65076;52.362;6.588;2023-05-25T10:41:19;102851.34;;;21.27;40.52
76260;BME280;65076;52.362;6.588;2023-05-25T10:43:48;102848.22;;;21.91;38.04
76260;BME280;65076;52.362;6.588;2023-05-25T10:46:19;102853.91;;;21.60;38.28
76260;BME280;65076;52.362;6.588;2023-05-25T10:48:49;102844.81;;;21.43;38.95
76260;BME280;65076;52.362;6.588;2023-05-25T10:51:19;102847.03;;;21.81;38.50
76260;BME280;65076;52.362;6.588;2023-05-25T10:53:57;102850.19;;;21.61;38.55
76260;BME280;65076;52.362;6.588;2023-05-25T10:56:27;102848.00;;;21.22;39.86
76260;BME280;65076;52.362;6.588;2023-05-25T10:58:55;102851.03;;;21.01;40.05
76260;BME280;65076;52.362;6.588;2023-05-25T11:01:23;102859.66;;;21.41;40.54
76260;BME280;65076;52.362;6.588;2023-05-25T11:04:13;102863.59;;;20.76;40.71
76260;BME280;65076;52.362;6.588;2023-05-25T11:07:05;102857.28;;;20.42;40.16
76260;BME280;65076;52.362;6.588;2023-05-25T11:09:43;102854.94;;;21.43;39.69
76260;BME280;65076;52.362;6.588;2023-05-25T11:12:25;102853.69;;;21.63;39.84
76260;BME280;65076;52.362;6.588;2023-05-25T11:15:10;102848.06;;;20.75;40.57
76260;BME280;65076;52.362;6.588;2023-05-25T11:17:59;102857.25;;;20.26;41.56
76260;BME280;65076;52.362;6.588;2023-05-25T11:20:32;102849.16;;;20.08;42.33
76260;BME280;65076;52.362;6.588;2023-05-25T11:23:24;102850.38;;;20.02;41.70
76260;BME280;65076;52.362;6.588;2023-05-25T11:26:03;102843.03;;;20.03;42.03
76260;BME280;65076;52.362;6.588;2023-05-25T11:28:32;102843.63;;;19.92;41.45
76260;BME280;65076;52.362;6.588;2023-05-25T11:31:00;102836.53;;;19.88;42.24
76260;BME280;65076;52.362;6.588;2023-05-25T11:33:32;102828.72;;;20.29;42.02
76260;BME280;65076;52.362;6.588;2023-05-25T11:36:00;102820.91;;;21.30;39.50
76260;BME280;65076;52.362;6.588;2023-05-25T11:38:30;102820.19;;;22.13;38.60
76260;BME280;65076;52.362;6.588;2023-05-25T11:41:02;102830.75;;;21.62;38.55
76260;BME280;65076;52.362;6.588;2023-05-25T11:43:32;102823.50;;;21.17;39.24
76260;BME280;65076;52.362;6.588;2023-05-25T11:46:07;102819.50;;;21.07;40.14
76260;BME280;65076;52.362;6.588;2023-05-25T11:48:36;102823.66;;;21.44;40.46
76260;BME280;65076;52.362;6.588;2023-05-25T11:51:09;102820.03;;;21.13;40.97
76260;BME280;65076;52.362;6.588;2023-05-25T11:53:42;102827.31;;;21.59;38.58
76260;BME280;65076;52.362;6.588;2023-05-25T11:56:12;102828.44;;;21.10;38.85
76260;BME280;65076;52.362;6.588;2023-05-25T11:59:00;102833.34;;;21.05;38.00
76260;BME280;65076;52.362;6.588;2023-05-25T12:01:28;102833.53;;;21.62;39.11
76260;BME280;65076;52.362;6.588;2023-05-25T12:03:57;102820.25;;;21.69;38.64
76260;BME280;65076;52.362;6.588;2023-05-25T12:06:34;102820.06;;;21.72;38.72
76260;BME280;65076;52.362;6.588;2023-05-25T12:09:10;102811.41;;;22.61;35.89
76260;BME280;65076;52.362;6.588;2023-05-25T12:11:39;102810.34;;;23.43;34.94
76260;BME280;65076;52.362;6.588;2023-05-25T12:14:11;102798.38;;;23.30;34.68
76260;BME280;65076;52.362;6.588;2023-05-25T12:16:40;102812.31;;;23.41;35.51
76260;BME280;65076;52.362;6.588;2023-05-25T12:19:09;102811.00;;;22.26;36.21
76260;BME280;65076;52.362;6.588;2023-05-25T12:21:39;102805.44;;;23.21;35.41
76260;BME280;65076;52.362;6.588;2023-05-25T12:24:10;102808.47;;;22.09;36.60
76260;BME280;65076;52.362;6.588;2023-05-25T12:26:49;102806.41;;;22.54;35.73
76260;BME280;65076;52.362;6.588;2023-05-25T12:29:23;102794.41;;;23.21;35.72
76260;BME280;65076;52.362;6.588;2023-05-25T12:31:52;102786.84;;;23.62;34.27
76260;BME280;65076;52.362;6.588;2023-05-25T12:34:20;102791.81;;;23.05;34.77
76260;BME280;65076;52.362;6.588;2023-05-25T12:36:55;102803.00;;;23.16;34.90
76260;BME280;65076;52.362;6.588;2023-05-25T12:39:34;102789.91;;;22.39;35.22
76260;BME280;65076;52.362;6.588;2023-05-25T12:42:11;102798.53;;;22.07;36.33
76260;BME280;65076;52.362;6.588;2023-05-25T12:44:41;102786.16;;;22.94;35.11
76260;BME280;65076;52.362;6.588;2023-05-25T12:47:13;102785.06;;;23.74;35.08
76260;BME280;65076;52.362;6.588;2023-05-25T12:49:45;102798.13;;;23.07;34.64
76260;BME280;65076;52.362;6.588;2023-05-25T12:52:33;102798.59;;;22.19;34.88
76260;BME280;65076;52.362;6.588;2023-05-25T12:55:25;102790.34;;;22.60;35.22
76260;BME280;65076;52.362;6.588;2023-05-25T12:57:54;102795.41;;;22.66;34.74
76260;BME280;65076;52.362;6.588;2023-05-25T13:00:25;102780.31;;;23.63;33.16
76260;BME280;65076;52.362;6.588;2023-05-25T13:02:55;102784.28;;;23.85;32.25
76260;BME280;65076;52.362;6.588;2023-05-25T13:05:25;102787.06;;;22.95;32.31
76260;BME280;65076;52.362;6.588;2023-05-25T13:07:55;102780.97;;;23.67;32.56